sensor_id;sensor_type;location;lat;lon;timestamp;pressure;altitude;pressure_sealevel;temperature;humidity
67818;BME280;54614;47.576;7.524;2022-09-16T00:00:27;98005.47;;;28.81;47.22
67818;BME280;54614;47.576;7.524;2022-09-16T00:02:54;98004.97;;;28.84;47.34
67818;BME280;54614;47.576;7.524;2022-09-16T00:05:21;98000.03;;;28.81;47.39
67818;BME280;54614;47.576;7.524;2022-09-16T00:07:47;97997.59;;;28.80;47.11
67818;BME280;54614;47.576;7.524;2022-09-16T00:10:14;97999.66;;;28.73;47.48
67818;BME280;54614;47.576;7.524;2022-09-16T00:12:40;97991.59;;;28.78;47.17
67818;BME280;54614;47.576;7.524;2022-09-16T00:15:08;97990.84;;;28.82;47.25
67818;BME280;54614;47.576;7.524;2022-09-16T00:17:34;97989.81;;;28.83;47.00
67818;BME280;54614;47.576;7.524;2022-09-16T00:20:00;97988.41;;;28.81;47.11
67818;BME280;54614;47.576;7.524;2022-09-16T00:22:27;97984.16;;;28.85;47.13
67818;BME280;54614;47.576;7.524;2022-09-16T00:24:53;97983.81;;;28.81;47.15
67818;BME280;54614;47.576;7.524;2022-09-16T00:27:19;97978.16;;;28.83;46.91
67818;BME280;54614;47.576;7.524;2022-09-16T00:29:45;97974.88;;;28.81;47.09
67818;BME280;54614;47.576;7.524;2022-09-16T00:32:12;97979.47;;;28.80;46.98
67818;BME280;54614;47.576;7.524;2022-09-16T00:34:38;97978.34;;;28.76;47.12
67818;BME280;54614;47.576;7.524;2022-09-16T00:37:04;97973.69;;;28.72;47.36
67818;BME280;54614;47.576;7.524;2022-09-16T00:39:33;97974.31;;;28.79;46.94
67818;BME280;54614;47.576;7.524;2022-09-16T00:42:01;97970.25;;;28.81;47.15
67818;BME280;54614;47.576;7.524;2022-09-16T00:44:56;97976.03;;;28.85;47.29
67818;BME280;54614;47.576;7.524;2022-09-16T00:47:39;97971.34;;;28.80;47.00
67818;BME280;54614;47.576;7.524;2022-09-16T00:50:13;97975.13;;;28.79;47.33
67818;BME280;54614;47.576;7.524;2022-09-16T00:52:41;97973.13;;;28.70;47.19
67818;BME280;54614;47.576;7.524;2022-09-16T00:55:13;97979.97;;;28.77;47.31
67818;BME280;54614;47.576;7.524;2022-09-16T00:57:41;97971.69;;;28.84;47.06
67818;BME280;54614;47.576;7.524;2022-09-16T01:00:08;97974.03;;;28.80;47.25
67818;BME280;54614;47.576;7.524;2022-09-16T01:02:36;97967.34;;;28.83;47.25
67818;BME280;54614;47.576;7.524;2022-09-16T01:05:11;97968.63;;;28.80;47.03
67818;BME280;54614;47.576;7.524;2022-09-16T01:07:43;97970.53;;;28.80;46.87
67818;BME280;54614;47.576;7.524;2022-09-16T01:10:12;97970.59;;;28.85;47.09
67818;BME280;54614;47.576;7.524;2022-09-16T01:12:43;97966.00;;;28.85;46.91
67818;BME280;54614;47.576;7.524;2022-09-16T01:15:11;97966.84;;;28.86;47.15
67818;BME280;54614;47.576;7.524;2022-09-16T01:27:04;97972.41;;;28.79;47.05
67818;BME280;54614;47.576;7.524;2022-09-16T01:30:12;97972.16;;;28.81;46.93
67818;BME280;54614;47.576;7.524;2022-09-16T01:33:05;97977.56;;;28.81;46.89
67818;BME280;54614;47.576;7.524;2022-09-16T01:39:07;97965.94;;;28.80;46.89
67818;BME280;54614;47.576;7.524;2022-09-16T01:45:28;97968.06;;;28.78;47.13
67818;BME280;54614;47.576;7.524;2022-09-16T01:50:45;97963.97;;;28.76;47.17
67818;BME280;54614;47.576;7.524;2022-09-16T01:53:42;97965.94;;;28.80;46.97
67818;BME280;54614;47.576;7.524;2022-09-16T01:59:05;97955.28;;;28.74;47.21
67818;BME280;54614;47.576;7.524;2022-09-16T02:01:51;97962.84;;;28.72;47.34
67818;BME280;54614;47.576;7.524;2022-09-16T02:04:48;97963.97;;;28.76;47.01
67818;BME280;54614;47.576;7.524;2022-09-16T02:07:20;97963.66;;;28.72;47.03
67818;BME280;54614;47.576;7.524;2022-09-16T02:09:56;97962.09;;;28.76;46.92
67818;BME280;54614;47.576;7.524;2022-09-16T02:12:30;97963.78;;;28.82;47.02
67818;BME280;54614;47.576;7.524;2022-09-16T02:15:13;97961.59;;;28.79;46.85
67818;BME280;54614;47.576;7.524;2022-09-16T02:17:49;97957.75;;;28.75;47.13
67818;BME280;54614;47.576;7.524;2022-09-16T02:20:24;97963.41;;;28.74;46.98
67818;BME280;54614;47.576;7.524;2022-09-16T02:23:17;97953.09;;;28.71;47.11
67818;BME280;54614;47.576;7.524;2022-09-16T02:25:47;97952.09;;;28.77;47.19
67818;BME280;54614;47.576;7.524;2022-09-16T02:28:23;97955.03;;;28.75;46.94
67818;BME280;54614;47.576;7.524;2022-09-16T02:30:54;97960.19;;;28.77;47.07
67818;BME280;54614;47.576;7.524;2022-09-16T02:33:26;97957.75;;;28.75;46.89
67818;BME280;54614;47.576;7.524;2022-09-16T02:35:56;97955.56;;;28.72;47.14
67818;BME280;54614;47.576;7.524;2022-09-16T02:38:34;97950.13;;;28.72;46.91
67818;BME280;54614;47.576;7.524;2022-09-16T02:41:01;97952.28;;;28.70;47.22
67818;BME280;54614;47.576;7.524;2022-09-16T02:43:28;97946.09;;;28.75;46.86
67818;BME280;54614;47.576;7.524;2022-09-16T02:49:52;97937.56;;;28.61;47.18
67818;BME280;54614;47.576;7.524;2022-09-16T02:52:21;97935.09;;;28.81;47.18
67818;BME280;54614;47.576;7.524;2022-09-16T02:57:45;97940.63;;;28.70;46.88
67818;BME280;54614;47.576;7.524;2022-09-16T03:00:12;97927.97;;;28.75;46.87
67818;BME280;54614;47.576;7.524;2022-09-16T03:02:38;97935.59;;;28.78;46.70
67818;BME280;54614;47.576;7.524;2022-09-16T03:05:05;97937.47;;;28.78;46.95
67818;BME280;54614;47.576;7.524;2022-09-16T03:07:32;97933.59;;;28.69;47.15
67818;BME280;54614;47.576;7.524;2022-09-16T03:09:58;97932.06;;;28.78;46.88
67818;BME280;54614;47.576;7.524;2022-09-16T03:13:09;97931.81;;;28.79;46.94
67818;BME280;54614;47.576;7.524;2022-09-16T03:16:03;97935.78;;;28.72;46.73
67818;BME280;54614;47.576;7.524;2022-09-16T03:19:03;97929.06;;;28.74;47.02
67818;BME280;54614;47.576;7.524;2022-09-16T03:22:16;97931.72;;;28.69;46.89
67818;BME280;54614;47.576;7.524;2022-09-16T03:25:16;97930.69;;;28.75;46.60
67818;BME280;54614;47.576;7.524;2022-09-16T03:27:54;97921.50;;;28.76;46.69
67818;BME280;54614;47.576;7.524;2022-09-16T03:30:22;97913.53;;;28.65;47.08
67818;BME280;54614;47.576;7.524;2022-09-16T03:33:02;97914.38;;;28.92;46.75
67818;BME280;54614;47.576;7.524;2022-09-16T03:35:41;97920.31;;;28.67;47.09
67818;BME280;54614;47.576;7.524;2022-09-16T03:38:11;97916.13;;;28.81;46.82
67818;BME280;54614;47.576;7.524;2022-09-16T03:40:41;97920.38;;;28.72;46.84
67818;BME280;54614;47.576;7.524;2022-09-16T03:43:15;97920.56;;;28.66;46.97
67818;BME280;54614;47.576;7.524;2022-09-16T03:45:42;97927.63;;;28.67;47.19
67818;BME280;54614;47.576;7.524;2022-09-16T03:48:10;97925.16;;;28.65;47.00
67818;BME280;54614;47.576;7.524;2022-09-16T03:50:37;97921.28;;;28.56;47.42
67818;BME280;54614;47.576;7.524;2022-09-16T03:53:03;97929.50;;;28.66;47.21
67818;BME280;54614;47.576;7.524;2022-09-16T03:55:29;97928.50;;;28.72;47.13
67818;BME280;54614;47.576;7.524;2022-09-16T03:57:55;97919.19;;;28.63;47.05
67818;BME280;54614;47.576;7.524;2022-09-16T04:00:22;97932.22;;;28.66;47.09
67818;BME280;54614;47.576;7.524;2022-09-16T04:02:48;97921.44;;;28.71;47.08
67818;BME280;54614;47.576;7.524;2022-09-16T04:05:14;97932.53;;;28.70;47.05
67818;BME280;54614;47.576;7.524;2022-09-16T04:07:39;97916.84;;;28.72;47.00
67818;BME280;54614;47.576;7.524;2022-09-16T04:10:06;97917.66;;;28.72;46.95
67818;BME280;54614;47.576;7.524;2022-09-16T04:12:32;97927.31;;;28.63;47.01
67818;BME280;54614;47.576;7.524;2022-09-16T04:14:58;97921.19;;;28.73;47.02
67818;BME280;54614;47.576;7.524;2022-09-16T04:17:24;97917.88;;;28.66;48.21
67818;BME280;54614;47.576;7.524;2022-09-16T04:19:50;97912.44;;;28.66;47.24
67818;BME280;54614;47.576;7.524;2022-09-16T04:22:20;97917.63;;;28.67;47.58
67818;BME280;54614;47.576;7.524;2022-09-16T04:24:46;97914.34;;;28.65;47.43
67818;BME280;54614;47.576;7.524;2022-09-16T04:27:12;97906.22;;;28.65;47.10
67818;BME280;54614;47.576;7.524;2022-09-16T04:29:37;97912.19;;;28.67;47.05
67818;BME280;54614;47.576;7.524;2022-09-16T04:32:03;97920.38;;;28.72;47.01
67818;BME280;54614;47.576;7.524;2022-09-16T04:34:29;97914.34;;;28.65;47.10
67818;BME280;54614;47.576;7.524;2022-09-16T04:36:57;97914.91;;;28.67;46.90
67818;BME280;54614;47.576;7.524;2022-09-16T04:39:23;97915.78;;;28.73;46.87
67818;BME280;54614;47.576;7.524;2022-09-16T04:41:49;97915.41;;;28.64;47.17
67818;BME280;54614;47.576;7.524;2022-09-16T04:44:15;97918.47;;;28.73;46.97
67818;BME280;54614;47.576;7.524;2022-09-16T04:46:41;97917.00;;;28.60;47.35
67818;BME280;54614;47.576;7.524;2022-09-16T04:49:06;97914.34;;;28.65;46.98
67818;BME280;54614;47.576;7.524;2022-09-16T04:51:32;97921.91;;;28.63;47.33
67818;BME280;54614;47.576;7.524;2022-09-16T04:53:59;97921.28;;;28.56;47.22
67818;BME280;54614;47.576;7.524;2022-09-16T04:56:29;97921.28;;;28.56;47.41
67818;BME280;54614;47.576;7.524;2022-09-16T04:58:59;97926.50;;;28.63;47.17
67818;BME280;54614;47.576;7.524;2022-09-16T05:01:32;97923.91;;;28.73;46.72
67818;BME280;54614;47.576;7.524;2022-09-16T05:04:02;97925.31;;;28.53;47.37
67818;BME280;54614;47.576;7.524;2022-09-16T05:06:36;97924.59;;;28.63;47.14
67818;BME280;54614;47.576;7.524;2022-09-16T05:09:03;97922.78;;;28.69;46.96
67818;BME280;54614;47.576;7.524;2022-09-16T05:11:32;97929.28;;;28.46;47.73
67818;BME280;54614;47.576;7.524;2022-09-16T05:14:01;97931.47;;;28.49;47.59
67818;BME280;54614;47.576;7.524;2022-09-16T05:16:28;97927.75;;;28.55;47.14
67818;BME280;54614;47.576;7.524;2022-09-16T05:18:57;97926.06;;;28.49;47.40
67818;BME280;54614;47.576;7.524;2022-09-16T05:21:27;97930.78;;;28.59;47.10
67818;BME280;54614;47.576;7.524;2022-09-16T05:23:53;97931.53;;;28.54;47.41
67818;BME280;54614;47.576;7.524;2022-09-16T05:26:26;97934.41;;;28.69;46.98
67818;BME280;54614;47.576;7.524;2022-09-16T05:28:53;97925.81;;;28.50;48.61
67818;BME280;54614;47.576;7.524;2022-09-16T05:31:28;97936.84;;;28.05;47.63
67818;BME280;54614;47.576;7.524;2022-09-16T05:34:05;97933.06;;;27.68;45.17
67818;BME280;54614;47.576;7.524;2022-09-16T05:36:34;97942.22;;;27.16;44.16
67818;BME280;54614;47.576;7.524;2022-09-16T05:39:02;97938.06;;;26.69;45.31
67818;BME280;54614;47.576;7.524;2022-09-16T05:41:28;97941.53;;;26.81;44.49
67818;BME280;54614;47.576;7.524;2022-09-16T05:44:00;97943.28;;;26.87;45.85
67818;BME280;54614;47.576;7.524;2022-09-16T05:46:27;97948.66;;;26.87;46.31
67818;BME280;54614;47.576;7.524;2022-09-16T05:48:53;97947.91;;;27.03;46.63
67818;BME280;54614;47.576;7.524;2022-09-16T05:51:22;97944.75;;;27.23;46.38
67818;BME280;54614;47.576;7.524;2022-09-16T05:53:49;97948.44;;;27.34;45.96
67818;BME280;54614;47.576;7.524;2022-09-16T05:56:24;97941.66;;;27.48;45.98
67818;BME280;54614;47.576;7.524;2022-09-16T05:58:56;97945.25;;;27.53;45.92
67818;BME280;54614;47.576;7.524;2022-09-16T06:01:27;97942.06;;;27.56;46.01
67818;BME280;54614;47.576;7.524;2022-09-16T06:03:55;97941.91;;;27.63;45.84
67818;BME280;54614;47.576;7.524;2022-09-16T06:06:36;97956.50;;;27.62;45.95
67818;BME280;54614;47.576;7.524;2022-09-16T06:09:19;97956.00;;;27.65;45.94
67818;BME280;54614;47.576;7.524;2022-09-16T06:11:49;97960.97;;;27.73;45.76
67818;BME280;54614;47.576;7.524;2022-09-16T06:14:19;97965.56;;;27.73;45.69
67818;BME280;54614;47.576;7.524;2022-09-16T06:16:47;97959.19;;;27.79;45.97
67818;BME280;54614;47.576;7.524;2022-09-16T06:19:16;97955.91;;;27.77;45.69
67818;BME280;54614;47.576;7.524;2022-09-16T06:21:43;97957.28;;;27.79;45.75
67818;BME280;54614;47.576;7.524;2022-09-16T06:24:11;97969.31;;;27.88;45.64
67818;BME280;54614;47.576;7.524;2022-09-16T06:26:40;97965.22;;;27.86;45.79
67818;BME280;54614;47.576;7.524;2022-09-16T06:29:08;97970.72;;;27.91;45.94
67818;BME280;54614;47.576;7.524;2022-09-16T06:31:36;97971.03;;;27.95;45.74
67818;BME280;54614;47.576;7.524;2022-09-16T06:34:03;97966.19;;;27.97;45.65
67818;BME280;54614;47.576;7.524;2022-09-16T06:36:34;97960.78;;;27.97;45.71
67818;BME280;54614;47.576;7.524;2022-09-16T06:39:02;97967.22;;;28.12;45.54
67818;BME280;54614;47.576;7.524;2022-09-16T06:41:31;97973.44;;;28.13;45.45
67818;BME280;54614;47.576;7.524;2022-09-16T06:43:58;97964.44;;;28.07;45.50
67818;BME280;54614;47.576;7.524;2022-09-16T06:46:27;97963.38;;;28.08;45.81
67818;BME280;54614;47.576;7.524;2022-09-16T06:48:55;97960.19;;;28.11;45.50
67818;BME280;54614;47.576;7.524;2022-09-16T06:51:25;97963.13;;;28.10;45.63
67818;BME280;54614;47.576;7.524;2022-09-16T06:53:53;97963.38;;;28.08;45.66
67818;BME280;54614;47.576;7.524;2022-09-16T06:56:21;97962.94;;;28.16;45.87
67818;BME280;54614;47.576;7.524;2022-09-16T06:58:50;97960.97;;;28.29;45.65
67818;BME280;54614;47.576;7.524;2022-09-16T07:01:30;97962.38;;;28.14;45.81
67818;BME280;54614;47.576;7.524;2022-09-16T07:04:00;97963.88;;;28.05;46.21
67818;BME280;54614;47.576;7.524;2022-09-16T07:06:28;97957.41;;;28.06;46.51
67818;BME280;54614;47.576;7.524;2022-09-16T07:08:54;97963.25;;;27.98;46.95
67818;BME280;54614;47.576;7.524;2022-09-16T07:11:22;97960.03;;;28.01;46.97
67818;BME280;54614;47.576;7.524;2022-09-16T07:13:52;97959.47;;;27.99;47.15
67818;BME280;54614;47.576;7.524;2022-09-16T07:16:24;97960.44;;;28.10;46.86
67818;BME280;54614;47.576;7.524;2022-09-16T07:18:57;97960.38;;;28.05;47.03
67818;BME280;54614;47.576;7.524;2022-09-16T07:21:27;97962.38;;;28.14;46.88
67818;BME280;54614;47.576;7.524;2022-09-16T07:24:00;97961.63;;;28.19;46.88
67818;BME280;54614;47.576;7.524;2022-09-16T07:26:33;97965.25;;;28.24;46.61
67818;BME280;54614;47.576;7.524;2022-09-16T07:29:03;97966.38;;;28.29;46.49
67818;BME280;54614;47.576;7.524;2022-09-16T07:31:34;97960.16;;;28.28;46.59
67818;BME280;54614;47.576;7.524;2022-09-16T07:34:02;97962.88;;;28.28;46.81
67818;BME280;54614;47.576;7.524;2022-09-16T07:36:32;97969.66;;;28.31;46.72
67818;BME280;54614;47.576;7.524;2022-09-16T07:38:59;97975.00;;;28.26;46.83
67818;BME280;54614;47.576;7.524;2022-09-16T07:41:31;97972.69;;;28.34;46.53
67818;BME280;54614;47.576;7.524;2022-09-16T07:43:59;97974.75;;;28.27;46.61
67818;BME280;54614;47.576;7.524;2022-09-16T07:46:29;97979.41;;;28.32;46.67
67818;BME280;54614;47.576;7.524;2022-09-16T07:48:58;97973.69;;;28.28;46.68
67818;BME280;54614;47.576;7.524;2022-09-16T07:51:25;97970.53;;;28.36;46.55
67818;BME280;54614;47.576;7.524;2022-09-16T07:53:57;97973.00;;;28.38;46.55
67818;BME280;54614;47.576;7.524;2022-09-16T07:56:26;97975.59;;;28.49;46.42
67818;BME280;54614;47.576;7.524;2022-09-16T07:58:55;97986.53;;;28.38;46.46
67818;BME280;54614;47.576;7.524;2022-09-16T08:01:22;97986.16;;;28.51;46.55
67818;BME280;54614;47.576;7.524;2022-09-16T08:03:49;97982.56;;;28.45;46.19
67818;BME280;54614;47.576;7.524;2022-09-16T08:06:22;97993.00;;;28.37;46.60
67818;BME280;54614;47.576;7.524;2022-09-16T08:08:55;97986.34;;;28.44;46.38
67818;BME280;54614;47.576;7.524;2022-09-16T08:11:22;97996.13;;;28.29;46.81
67818;BME280;54614;47.576;7.524;2022-09-16T08:13:48;97996.78;;;28.36;46.58
67818;BME280;54614;47.576;7.524;2022-09-16T08:16:18;97996.28;;;28.39;46.75
67818;BME280;54614;47.576;7.524;2022-09-16T08:18:48;97999.78;;;28.39;46.76
67818;BME280;54614;47.576;7.524;2022-09-16T08:21:21;97999.28;;;28.42;46.90
67818;BME280;54614;47.576;7.524;2022-09-16T08:23:47;97985.59;;;28.49;46.24
67818;BME280;54614;47.576;7.524;2022-09-16T08:26:15;98001.69;;;28.39;46.56
67818;BME280;54614;47.576;7.524;2022-09-16T08:28:44;98000.22;;;28.31;46.66
67818;BME280;54614;47.576;7.524;2022-09-16T08:31:11;98000.22;;;28.31;46.69
67818;BME280;54614;47.576;7.524;2022-09-16T08:33:40;98006.84;;;28.40;46.62
67818;BME280;54614;47.576;7.524;2022-09-16T08:36:18;98001.13;;;28.37;46.74
67818;BME280;54614;47.576;7.524;2022-09-16T08:38:47;98000.47;;;28.30;46.80
67818;BME280;54614;47.576;7.524;2022-09-16T08:41:29;98003.31;;;28.40;46.79
67818;BME280;54614;47.576;7.524;2022-09-16T08:46:55;98004.88;;;28.36;46.90
67818;BME280;54614;47.576;7.524;2022-09-16T08:51:59;98007.84;;;28.56;46.54
67818;BME280;54614;47.576;7.524;2022-09-16T08:57:03;98017.97;;;28.44;46.70
67818;BME280;54614;47.576;7.524;2022-09-16T08:59:38;98025.66;;;28.52;46.41
67818;BME280;54614;47.576;7.524;2022-09-16T09:04:50;98017.72;;;28.45;46.64
67818;BME280;54614;47.576;7.524;2022-09-16T09:07:54;98016.66;;;28.46;46.63
67818;BME280;54614;47.576;7.524;2022-09-16T09:10:44;98017.47;;;28.47;46.75
67818;BME280;54614;47.576;7.524;2022-09-16T09:16:06;98019.31;;;28.41;46.90
67818;BME280;54614;47.576;7.524;2022-09-16T09:28:48;98021.25;;;28.46;46.56
67818;BME280;54614;47.576;7.524;2022-09-16T09:42:14;98009.63;;;28.45;46.61
67818;BME280;54614;47.576;7.524;2022-09-16T09:45:16;98015.41;;;28.54;46.48
67818;BME280;54614;47.576;7.524;2022-09-16T09:50:48;98014.59;;;28.53;46.44
67818;BME280;54614;47.576;7.524;2022-09-16T09:53:19;98011.06;;;28.31;47.29
67818;BME280;54614;47.576;7.524;2022-09-16T09:55:57;98014.81;;;28.13;47.68
67818;BME280;54614;47.576;7.524;2022-09-16T09:58:38;98010.06;;;28.20;47.52
67818;BME280;54614;47.576;7.524;2022-09-16T10:01:05;98007.97;;;28.06;48.03
67818;BME280;54614;47.576;7.524;2022-09-16T10:03:31;98006.75;;;27.97;48.29
67818;BME280;54614;47.576;7.524;2022-09-16T10:05:58;98007.25;;;27.93;48.27
67818;BME280;54614;47.576;7.524;2022-09-16T10:08:56;98008.63;;;27.96;48.11
67818;BME280;54614;47.576;7.524;2022-09-16T10:11:28;98016.47;;;28.14;47.89
67818;BME280;54614;47.576;7.524;2022-09-16T10:14:01;98017.53;;;28.30;47.27
67818;BME280;54614;47.576;7.524;2022-09-16T10:16:33;98009.16;;;28.15;47.70
67818;BME280;54614;47.576;7.524;2022-09-16T10:19:16;98013.22;;;27.96;48.30
67818;BME280;54614;47.576;7.524;2022-09-16T10:21:54;98001.84;;;27.93;48.30
67818;BME280;54614;47.576;7.524;2022-09-16T10:24:35;97995.59;;;27.93;48.45
67818;BME280;54614;47.576;7.524;2022-09-16T10:27:26;97998.38;;;27.98;48.45
67818;BME280;54614;47.576;7.524;2022-09-16T10:30:15;98001.63;;;28.17;48.13
67818;BME280;54614;47.576;7.524;2022-09-16T10:33:02;97995.72;;;28.37;47.45
67818;BME280;54614;47.576;7.524;2022-09-16T10:35:34;98001.25;;;28.47;47.17
67818;BME280;54614;47.576;7.524;2022-09-16T10:38:15;97999.16;;;28.32;47.70
67818;BME280;54614;47.576;7.524;2022-09-16T10:41:02;97996.16;;;28.12;48.10
67818;BME280;54614;47.576;7.524;2022-09-16T10:43:30;97991.88;;;28.33;47.67
67818;BME280;54614;47.576;7.524;2022-09-16T10:45:57;98000.94;;;28.43;47.21
67818;BME280;54614;47.576;7.524;2022-09-16T10:48:29;98007.22;;;28.49;46.99
67818;BME280;54614;47.576;7.524;2022-09-16T10:53:35;97998.84;;;28.50;47.03
67818;BME280;54614;47.576;7.524;2022-09-16T10:56:05;98003.50;;;28.55;46.97
67818;BME280;54614;47.576;7.524;2022-09-16T10:58:32;97995.09;;;28.51;47.11
67818;BME280;54614;47.576;7.524;2022-09-16T11:10:10;98022.72;;;28.53;47.32
67818;BME280;54614;47.576;7.524;2022-09-16T11:13:03;98021.31;;;28.51;47.12
67818;BME280;54614;47.576;7.524;2022-09-16T11:31:08;98024.28;;;28.71;46.57
67818;BME280;54614;47.576;7.524;2022-09-16T11:37:13;98035.22;;;28.60;46.85
67818;BME280;54614;47.576;7.524;2022-09-16T11:55:40;98033.97;;;28.67;46.44
67818;BME280;54614;47.576;7.524;2022-09-16T12:01:30;98029.94;;;28.70;46.53
67818;BME280;54614;47.576;7.524;2022-09-16T12:04:30;98033.16;;;28.67;46.71
67818;BME280;54614;47.576;7.524;2022-09-16T12:07:05;98031.19;;;28.62;46.70
67818;BME280;54614;47.576;7.524;2022-09-16T12:10:07;98026.69;;;28.68;46.86
67818;BME280;54614;47.576;7.524;2022-09-16T12:12:43;98027.44;;;28.63;46.63
67818;BME280;54614;47.576;7.524;2022-09-16T12:15:27;98026.88;;;28.61;46.80
67818;BME280;54614;47.576;7.524;2022-09-16T12:18:16;98026.09;;;28.66;46.66
67818;BME280;54614;47.576;7.524;2022-09-16T12:20:59;98018.13;;;28.76;46.91
67818;BME280;54614;47.576;7.524;2022-09-16T12:23:37;98011.47;;;28.83;46.54
67818;BME280;54614;47.576;7.524;2022-09-16T12:26:20;98012.75;;;28.81;46.21
67818;BME280;54614;47.576;7.524;2022-09-16T12:31:52;98017.53;;;28.74;46.63
67818;BME280;54614;47.576;7.524;2022-09-16T12:37:42;98049.66;;;28.65;46.72
67818;BME280;54614;47.576;7.524;2022-09-16T12:40:56;98057.81;;;28.70;46.72
67818;BME280;54614;47.576;7.524;2022-09-16T12:47:06;98062.28;;;28.60;47.02
67818;BME280;54614;47.576;7.524;2022-09-16T12:53:26;98050.22;;;28.67;46.54
67818;BME280;54614;47.576;7.524;2022-09-16T13:04:22;98058.19;;;28.02;41.80
67818;BME280;54614;47.576;7.524;2022-09-16T13:06:55;98059.34;;;27.89;40.79
67818;BME280;54614;47.576;7.524;2022-09-16T13:09:39;98053.28;;;27.82;40.42
67818;BME280;54614;47.576;7.524;2022-09-16T13:12:27;98060.31;;;27.83;41.55
67818;BME280;54614;47.576;7.524;2022-09-16T13:15:03;98055.88;;;27.93;43.68
67818;BME280;54614;47.576;7.524;2022-09-16T13:17:38;98052.03;;;28.06;44.08
67818;BME280;54614;47.576;7.524;2022-09-16T13:20:17;98049.22;;;28.18;44.28
67818;BME280;54614;47.576;7.524;2022-09-16T13:23:13;98052.19;;;28.16;44.98
67818;BME280;54614;47.576;7.524;2022-09-16T13:26:05;98046.09;;;28.43;44.85
67818;BME280;54614;47.576;7.524;2022-09-16T13:38:52;98065.59;;;28.83;44.46
67818;BME280;54614;47.576;7.524;2022-09-16T13:43:57;98067.91;;;28.75;44.37
67818;BME280;54614;47.576;7.524;2022-09-16T13:46:35;98064.34;;;28.91;44.49
67818;BME280;54614;47.576;7.524;2022-09-16T13:51:47;98077.75;;;29.03;44.28
67818;BME280;54614;47.576;7.524;2022-09-16T13:54:42;98064.63;;;29.16;45.00
67818;BME280;54614;47.576;7.524;2022-09-16T13:57:38;98063.34;;;28.97;44.47
67818;BME280;54614;47.576;7.524;2022-09-16T14:00:25;98061.00;;;29.06;43.33
67818;BME280;54614;47.576;7.524;2022-09-16T14:06:12;98063.84;;;28.94;42.94
67818;BME280;54614;47.576;7.524;2022-09-16T14:11:55;98057.03;;;28.31;46.02
67818;BME280;54614;47.576;7.524;2022-09-16T14:14:34;98063.50;;;28.13;46.24
67818;BME280;54614;47.576;7.524;2022-09-16T14:17:23;98061.38;;;28.15;45.93
67818;BME280;54614;47.576;7.524;2022-09-16T14:19:57;98061.69;;;28.36;45.65
67818;BME280;54614;47.576;7.524;2022-09-16T14:22:23;98055.25;;;28.59;45.15
67818;BME280;54614;47.576;7.524;2022-09-16T14:24:53;98048.25;;;28.63;44.92
67818;BME280;54614;47.576;7.524;2022-09-16T14:27:39;98050.97;;;28.63;44.49
67818;BME280;54614;47.576;7.524;2022-09-16T14:30:14;98046.63;;;28.62;44.73
67818;BME280;54614;47.576;7.524;2022-09-16T14:32:42;98052.84;;;28.62;44.41
67818;BME280;54614;47.576;7.524;2022-09-16T14:35:15;98058.50;;;28.61;44.58
67818;BME280;54614;47.576;7.524;2022-09-16T14:37:45;98054.16;;;28.60;44.74
67818;BME280;54614;47.576;7.524;2022-09-16T14:40:21;98048.19;;;28.58;44.86
67818;BME280;54614;47.576;7.524;2022-09-16T14:42:59;98060.59;;;28.53;45.19
67818;BME280;54614;47.576;7.524;2022-09-16T14:45:29;98069.31;;;28.22;45.90
67818;BME280;54614;47.576;7.524;2022-09-16T14:48:00;98080.31;;;28.32;45.82
67818;BME280;54614;47.576;7.524;2022-09-16T14:50:48;98085.63;;;28.10;46.47
67818;BME280;54614;47.576;7.524;2022-09-16T14:53:30;98076.78;;;27.98;46.88
67818;BME280;54614;47.576;7.524;2022-09-16T14:55:57;98079.88;;;28.40;45.77
67818;BME280;54614;47.576;7.524;2022-09-16T14:58:27;98088.22;;;28.55;45.20
67818;BME280;54614;47.576;7.524;2022-09-16T15:01:17;98083.44;;;28.63;45.00
67818;BME280;54614;47.576;7.524;2022-09-16T15:04:09;98079.84;;;28.57;45.47
67818;BME280;54614;47.576;7.524;2022-09-16T15:06:47;98080.56;;;28.69;45.10
67818;BME280;54614;47.576;7.524;2022-09-16T15:09:52;98084.38;;;28.73;44.79
67818;BME280;54614;47.576;7.524;2022-09-16T15:12:30;98085.00;;;28.59;45.52
67818;BME280;54614;47.576;7.524;2022-09-16T15:14:57;98086.75;;;28.48;45.44
67818;BME280;54614;47.576;7.524;2022-09-16T15:17:27;98095.97;;;28.30;46.78
67818;BME280;54614;47.576;7.524;2022-09-16T15:19:57;98097.41;;;28.21;46.34
67818;BME280;54614;47.576;7.524;2022-09-16T15:22:26;98090.28;;;28.15;46.18
67818;BME280;54614;47.576;7.524;2022-09-16T15:24:56;98077.66;;;28.20;45.75
67818;BME280;54614;47.576;7.524;2022-09-16T15:27:29;98083.81;;;28.16;44.79
67818;BME280;54614;47.576;7.524;2022-09-16T15:30:00;98088.66;;;28.31;44.57
67818;BME280;54614;47.576;7.524;2022-09-16T15:32:30;98085.03;;;28.42;44.48
67818;BME280;54614;47.576;7.524;2022-09-16T15:35:22;98085.63;;;28.27;43.86
67818;BME280;54614;47.576;7.524;2022-09-16T15:37:49;98084.31;;;28.30;43.79
67818;BME280;54614;47.576;7.524;2022-09-16T15:43:25;98078.00;;;28.07;43.63
67818;BME280;54614;47.576;7.524;2022-09-16T15:46:05;98084.47;;;28.06;43.84
67818;BME280;54614;47.576;7.524;2022-09-16T15:48:49;98087.59;;;27.98;43.92
67818;BME280;54614;47.576;7.524;2022-09-16T15:51:32;98081.28;;;27.76;44.16
67818;BME280;54614;47.576;7.524;2022-09-16T15:54:23;98089.53;;;27.69;43.92
67818;BME280;54614;47.576;7.524;2022-09-16T15:56:58;98079.81;;;27.85;43.38
67818;BME280;54614;47.576;7.524;2022-09-16T16:02:17;98086.13;;;28.24;42.21
67818;BME280;54614;47.576;7.524;2022-09-16T16:04:44;98085.53;;;27.88;43.35
67818;BME280;54614;47.576;7.524;2022-09-16T16:07:10;98087.50;;;27.93;43.35
67818;BME280;54614;47.576;7.524;2022-09-16T16:09:42;98091.53;;;27.90;43.07
67818;BME280;54614;47.576;7.524;2022-09-16T16:12:15;98089.38;;;28.09;42.59
67818;BME280;54614;47.576;7.524;2022-09-16T16:14:42;98101.19;;;28.20;42.38
67818;BME280;54614;47.576;7.524;2022-09-16T16:17:16;98091.28;;;28.26;42.22
67818;BME280;54614;47.576;7.524;2022-09-16T16:19:46;98096.78;;;28.31;42.56